createdAt,value
2023-05-21T00:00:30.180Z,17.49
2023-05-21T00:02:59.247Z,17.41
2023-05-21T00:05:26.597Z,17.41
2023-05-21T00:07:54.940Z,17.33
2023-05-21T00:10:22.600Z,17.38
2023-05-21T00:12:49.753Z,17.24
2023-05-21T00:15:16.920Z,17.18
2023-05-21T00:17:46.218Z,17.16
2023-05-21T00:20:13.491Z,17.08
2023-05-21T00:22:42.420Z,17.07
2023-05-21T00:25:11.720Z,17.05
2023-05-21T00:27:39.406Z,16.99
2023-05-21T00:30:07.321Z,16.88
2023-05-21T00:32:34.717Z,16.90
2023-05-21T00:35:01.821Z,16.85
2023-05-21T00:37:33.213Z,16.79
2023-05-21T00:40:11.547Z,16.88
2023-05-21T00:42:39.486Z,16.77
2023-05-21T00:45:08.672Z,16.75
2023-05-21T00:47:36.231Z,16.59
2023-05-21T00:50:04.662Z,16.63
2023-05-21T00:52:32.029Z,16.57
2023-05-21T00:54:59.086Z,16.53
2023-05-21T00:57:29.847Z,16.48
2023-05-21T00:59:57.290Z,16.42
2023-05-21T01:02:26.088Z,16.36
2023-05-21T01:04:56.341Z,16.34
2023-05-21T01:07:23.660Z,16.34
2023-05-21T01:09:51.102Z,16.31
2023-05-21T01:12:19.638Z,16.24
2023-05-21T01:14:48.125Z,16.24
2023-05-21T01:17:16.416Z,16.14
2023-05-21T01:19:44.795Z,16.13
2023-05-21T01:22:14.359Z,16.12
2023-05-21T01:24:41.746Z,16.14
2023-05-21T01:27:10.509Z,16.11
2023-05-21T01:29:37.906Z,16.07
2023-05-21T01:32:37.348Z,16.05
2023-05-21T01:35:11.337Z,15.97
2023-05-21T01:37:49.536Z,16.00
2023-05-21T01:40:24.019Z,15.97
2023-05-21T01:42:52.093Z,15.99
2023-05-21T01:45:21.679Z,16.04
2023-05-21T01:47:51.780Z,16.01
2023-05-21T01:50:19.582Z,16.00
2023-05-21T01:52:53.794Z,16.02
2023-05-21T01:55:25.043Z,15.97
2023-05-21T01:57:53.840Z,15.94
2023-05-21T02:00:22.554Z,15.89
2023-05-21T02:02:50.405Z,15.87
2023-05-21T02:05:18.260Z,15.83
2023-05-21T02:07:46.121Z,15.86
2023-05-21T02:10:13.932Z,15.84
2023-05-21T02:12:40.964Z,15.83
2023-05-21T02:15:09.223Z,15.77
2023-05-21T02:17:38.793Z,15.73
2023-05-21T02:20:13.748Z,15.71
2023-05-21T02:22:48.704Z,15.66
2023-05-21T02:25:18.458Z,15.61
2023-05-21T02:27:46.972Z,15.61
2023-05-21T02:30:16.233Z,15.53
2023-05-21T02:32:44.930Z,15.45
2023-05-21T02:35:13.198Z,15.47
2023-05-21T02:37:40.737Z,15.45
2023-05-21T02:40:09.764Z,15.44
2023-05-21T02:42:39.732Z,15.38
2023-05-21T02:45:09.310Z,15.39
2023-05-21T02:47:36.908Z,15.39
2023-05-21T02:50:07.073Z,15.42
2023-05-21T02:52:35.770Z,15.34
2023-05-21T02:55:03.319Z,15.21
2023-05-21T02:57:30.786Z,15.18
2023-05-21T02:59:58.417Z,15.20
2023-05-21T03:02:25.681Z,15.25
2023-05-21T03:04:54.201Z,15.24
2023-05-21T03:07:21.809Z,15.21
2023-05-21T03:09:48.998Z,15.12
2023-05-21T03:12:16.168Z,15.08
2023-05-21T03:14:44.260Z,15.10
2023-05-21T03:17:14.022Z,15.09
2023-05-21T03:19:42.311Z,15.16
2023-05-21T03:22:11.390Z,15.15
2023-05-21T03:24:39.281Z,15.25
2023-05-21T03:27:06.867Z,15.32
2023-05-21T03:29:35.028Z,15.42
2023-05-21T03:32:02.635Z,15.42
2023-05-21T03:34:31.269Z,15.39
2023-05-21T03:36:59.101Z,15.44
2023-05-21T03:39:26.908Z,15.37
2023-05-21T03:41:54.902Z,15.42
2023-05-21T03:44:22.924Z,15.48
2023-05-21T03:46:50.544Z,15.46
2023-05-21T03:49:18.364Z,15.51
2023-05-21T03:51:45.916Z,15.57
2023-05-21T03:54:13.586Z,15.60
2023-05-21T03:56:40.966Z,15.73
2023-05-21T03:59:08.911Z,15.77
2023-05-21T04:01:37.091Z,15.92
2023-05-21T04:04:05.005Z,16.07
2023-05-21T04:06:32.310Z,16.17
2023-05-21T04:08:59.445Z,16.24
2023-05-21T04:11:27.033Z,16.33
2023-05-21T04:13:54.213Z,16.38
2023-05-21T04:16:22.520Z,16.46
2023-05-21T04:18:50.189Z,16.57
2023-05-21T04:21:17.391Z,16.64
2023-05-21T04:23:44.686Z,16.78
2023-05-21T04:26:16.251Z,16.96
2023-05-21T04:28:43.518Z,17.15
2023-05-21T04:31:13.017Z,17.37
2023-05-21T04:33:42.213Z,17.56
2023-05-21T04:36:12.606Z,17.83
2023-05-21T04:38:41.880Z,17.99
2023-05-21T04:41:10.881Z,18.11
2023-05-21T04:43:38.347Z,18.26
2023-05-21T04:46:06.073Z,18.30
2023-05-21T04:48:34.057Z,18.33
2023-05-21T04:51:01.661Z,18.36
2023-05-21T04:53:29.890Z,18.43
2023-05-21T04:55:59.409Z,18.47
2023-05-21T04:58:27.895Z,18.52
2023-05-21T05:00:55.865Z,18.52
2023-05-21T05:03:23.443Z,18.53
2023-05-21T05:05:51.680Z,18.68
2023-05-21T05:08:20.291Z,18.70
2023-05-21T05:10:47.914Z,18.68
2023-05-21T05:13:16.057Z,18.67
2023-05-21T05:15:43.773Z,18.72
2023-05-21T05:18:11.949Z,18.71
2023-05-21T05:20:40.748Z,18.80
2023-05-21T05:23:07.842Z,18.80
2023-05-21T05:25:35.410Z,18.79
2023-05-21T05:28:02.765Z,18.84
2023-05-21T05:30:29.944Z,19.00
2023-05-21T05:32:59.255Z,19.26
2023-05-21T05:35:26.310Z,19.38
2023-05-21T05:37:53.313Z,19.44
2023-05-21T05:40:20.695Z,19.56
2023-05-21T05:42:49.541Z,19.69
2023-05-21T05:45:17.145Z,20.00
2023-05-21T05:47:44.752Z,20.22
2023-05-21T05:50:12.395Z,20.56
2023-05-21T05:52:39.509Z,21.25
2023-05-21T05:55:08.983Z,21.43
2023-05-21T05:57:36.278Z,21.25
2023-05-21T06:00:04.998Z,21.31
2023-05-21T06:02:39.556Z,21.72
2023-05-21T06:05:07.820Z,21.49
2023-05-21T06:07:40.705Z,21.72
2023-05-21T06:10:08.527Z,21.89
2023-05-21T06:12:35.942Z,21.80
2023-05-21T06:15:03.396Z,21.59
2023-05-21T06:17:31.892Z,21.67
2023-05-21T06:19:59.259Z,21.74
2023-05-21T06:22:26.940Z,21.77
2023-05-21T06:24:55.061Z,21.95
2023-05-21T06:27:22.161Z,22.31
2023-05-21T06:29:49.662Z,22.47
2023-05-21T06:32:17.342Z,22.32
2023-05-21T06:34:44.608Z,22.26
2023-05-21T06:37:11.731Z,22.10
2023-05-21T06:39:39.151Z,22.04
2023-05-21T06:42:06.507Z,22.02
2023-05-21T06:44:38.634Z,22.02
2023-05-21T06:47:07.080Z,22.19
2023-05-21T06:49:34.554Z,22.21
2023-05-21T06:52:02.432Z,22.11
2023-05-21T06:54:29.911Z,22.15
2023-05-21T06:56:57.037Z,22.29
2023-05-21T06:59:24.538Z,22.31
2023-05-21T07:01:52.023Z,22.52
2023-05-21T07:04:19.509Z,22.55
2023-05-21T07:06:46.819Z,22.71
2023-05-21T07:09:14.333Z,22.95
2023-05-21T07:11:42.404Z,23.21
2023-05-21T07:14:09.859Z,23.22
2023-05-21T07:16:37.760Z,23.32
2023-05-21T07:19:04.992Z,23.68
2023-05-21T07:21:32.903Z,24.55
2023-05-21T07:24:00.615Z,25.57
2023-05-21T07:26:27.749Z,26.18
2023-05-21T07:28:54.929Z,26.90
2023-05-21T07:31:23.052Z,27.40
2023-05-21T07:33:50.705Z,27.69
2023-05-21T07:36:18.309Z,28.01
2023-05-21T07:38:45.756Z,28.40
2023-05-21T07:41:13.588Z,28.99
2023-05-21T07:43:40.804Z,28.85
2023-05-21T07:46:08.603Z,28.68
2023-05-21T07:48:36.118Z,29.13
2023-05-21T07:51:03.954Z,29.31
2023-05-21T07:53:32.473Z,29.33
2023-05-21T07:56:00.647Z,29.08
2023-05-21T07:58:28.359Z,28.81
2023-05-21T08:00:55.993Z,28.73
2023-05-21T08:03:28.036Z,28.88
2023-05-21T08:05:55.340Z,28.86
2023-05-21T08:08:23.466Z,29.16
2023-05-21T08:10:52.131Z,29.04
2023-05-21T08:13:19.596Z,29.47
2023-05-21T08:15:47.231Z,29.54
2023-05-21T08:18:15.126Z,29.84
2023-05-21T08:20:42.544Z,29.27
2023-05-21T08:23:10.057Z,29.29
2023-05-21T08:25:38.604Z,29.61
2023-05-21T08:28:06.957Z,29.28
2023-05-21T08:30:34.681Z,29.57
2023-05-21T08:33:02.584Z,29.43
2023-05-21T08:35:30.866Z,29.14
2023-05-21T08:37:58.907Z,29.34
2023-05-21T08:40:26.948Z,29.64
2023-05-21T08:42:54.237Z,29.58
2023-05-21T08:45:24.141Z,29.81
2023-05-21T08:48:00.993Z,29.44
2023-05-21T08:50:29.202Z,29.61
2023-05-21T08:52:59.059Z,30.06
2023-05-21T08:55:27.059Z,29.98
2023-05-21T08:57:55.222Z,29.98
2023-05-21T09:00:24.178Z,29.89
2023-05-21T09:02:54.636Z,29.90
2023-05-21T09:05:22.687Z,29.73
2023-05-21T09:07:55.602Z,29.98
2023-05-21T09:10:32.299Z,30.01
2023-05-21T09:13:00.233Z,30.07
2023-05-21T09:15:27.398Z,30.18
2023-05-21T09:17:54.589Z,30.16
2023-05-21T09:20:28.271Z,30.29
2023-05-21T09:22:56.332Z,29.76
2023-05-21T09:25:28.300Z,29.56
2023-05-21T09:27:56.816Z,29.43
2023-05-21T09:30:26.933Z,29.62
2023-05-21T09:32:58.724Z,30.08
2023-05-21T09:35:26.346Z,30.21
2023-05-21T09:37:53.721Z,29.49
2023-05-21T09:40:22.986Z,29.49
2023-05-21T09:42:53.273Z,29.58
2023-05-21T09:45:27.258Z,29.82
2023-05-21T09:47:56.261Z,29.74
2023-05-21T09:50:26.965Z,29.68
2023-05-21T09:52:55.605Z,29.44
2023-05-21T09:55:24.278Z,29.83
2023-05-21T09:57:52.202Z,29.84
2023-05-21T10:00:22.562Z,30.19
2023-05-21T10:02:54.598Z,30.45
2023-05-21T10:05:28.209Z,30.41
2023-05-21T10:08:04.049Z,30.58
2023-05-21T10:10:32.238Z,30.31
2023-05-21T10:13:09.618Z,30.71
2023-05-21T10:15:44.194Z,30.69
2023-05-21T10:18:13.630Z,30.63
2023-05-21T10:20:41.427Z,31.19
2023-05-21T10:23:09.553Z,31.18
2023-05-21T10:25:37.565Z,31.06
2023-05-21T10:28:06.920Z,30.86
2023-05-21T10:30:36.354Z,30.59
2023-05-21T10:33:04.601Z,30.62
2023-05-21T10:35:33.741Z,30.59
2023-05-21T10:38:04.639Z,31.01
2023-05-21T10:40:32.377Z,31.13
2023-05-21T10:43:14.323Z,30.92
2023-05-21T10:46:03.241Z,30.98
2023-05-21T10:48:54.642Z,31.30
2023-05-21T10:51:46.925Z,31.04
2023-05-21T10:54:52.787Z,30.91
2023-05-21T10:57:40.013Z,30.54
2023-05-21T11:00:09.528Z,29.53
2023-05-21T11:02:37.484Z,29.57
2023-05-21T11:05:05.147Z,29.79
2023-05-21T11:07:56.436Z,30.20
2023-05-21T11:10:31.577Z,30.66
2023-05-21T11:13:08.904Z,30.89
2023-05-21T11:15:58.106Z,30.88
2023-05-21T11:18:37.863Z,30.93
2023-05-21T11:21:15.375Z,30.82
2023-05-21T11:24:02.746Z,30.89
2023-05-21T11:26:55.191Z,31.10
2023-05-21T11:29:33.569Z,31.35
2023-05-21T11:32:05.798Z,31.15
2023-05-21T11:34:40.840Z,30.96
2023-05-21T11:37:33.218Z,30.95
2023-05-21T11:40:20.181Z,31.27
2023-05-21T11:42:55.232Z,31.40
2023-05-21T11:45:24.703Z,31.18
2023-05-21T11:47:53.442Z,31.19
2023-05-21T11:50:20.897Z,31.05
2023-05-21T11:52:49.385Z,31.26
2023-05-21T11:55:22.126Z,30.71
2023-05-21T11:57:53.018Z,30.09
2023-05-21T12:00:20.381Z,30.02
2023-05-21T12:02:51.615Z,30.44
2023-05-21T12:05:18.911Z,30.49
2023-05-21T12:07:52.298Z,30.57
2023-05-21T12:10:24.129Z,30.71
2023-05-21T12:12:56.592Z,30.32
2023-05-21T12:15:26.496Z,30.91
2023-05-21T12:17:54.828Z,31.05
2023-05-21T12:20:22.541Z,30.83
2023-05-21T12:22:50.547Z,30.50
2023-05-21T12:25:20.112Z,29.59
2023-05-21T12:27:49.759Z,28.90
2023-05-21T12:30:17.217Z,28.64
2023-05-21T12:32:44.466Z,28.65
2023-05-21T12:35:22.610Z,28.45
2023-05-21T12:37:51.062Z,28.42
2023-05-21T12:40:18.698Z,28.74
2023-05-21T12:42:45.866Z,29.10
2023-05-21T12:45:13.653Z,28.89
2023-05-21T12:47:40.863Z,28.35
2023-05-21T12:50:11.624Z,28.90
2023-05-21T12:52:42.807Z,29.09
2023-05-21T12:55:13.070Z,29.24
2023-05-21T12:57:40.490Z,28.99
2023-05-21T13:00:08.832Z,29.01
2023-05-21T13:02:41.137Z,28.94
2023-05-21T13:05:10.950Z,29.16
2023-05-21T13:07:39.757Z,29.54
2023-05-21T13:10:07.715Z,29.55
2023-05-21T13:12:35.346Z,29.35
2023-05-21T13:15:04.470Z,29.41
2023-05-21T13:17:31.689Z,29.83
2023-05-21T13:20:14.979Z,30.02
2023-05-21T13:22:47.415Z,29.92
2023-05-21T13:25:28.508Z,30.01
2023-05-21T13:27:56.946Z,30.11
2023-05-21T13:30:24.274Z,29.63
2023-05-21T13:32:52.201Z,29.32
2023-05-21T13:35:19.709Z,29.04
2023-05-21T13:37:47.294Z,29.03
2023-05-21T13:40:15.788Z,28.81
2023-05-21T13:42:44.465Z,28.52
2023-05-21T13:45:13.565Z,28.67
2023-05-21T13:47:41.714Z,28.68
2023-05-21T13:50:09.753Z,28.87
2023-05-21T13:52:37.965Z,28.93
2023-05-21T13:55:05.944Z,28.77
2023-05-21T13:57:33.275Z,28.91
2023-05-21T14:00:01.228Z,29.14
2023-05-21T14:02:28.804Z,29.01
2023-05-21T14:04:56.216Z,29.13
2023-05-21T14:07:23.338Z,28.65
2023-05-21T14:09:50.427Z,28.47
2023-05-21T14:12:18.937Z,28.28
2023-05-21T14:14:46.079Z,28.49
2023-05-21T14:17:13.229Z,28.35
2023-05-21T14:19:41.219Z,28.32
2023-05-21T14:22:08.323Z,28.31
2023-05-21T14:24:35.459Z,28.39
2023-05-21T14:27:02.911Z,28.42
2023-05-21T14:29:30.753Z,28.33
2023-05-21T14:31:57.895Z,28.42
2023-05-21T14:34:25.389Z,28.43
2023-05-21T14:36:52.427Z,28.49
2023-05-21T14:39:19.464Z,28.43
2023-05-21T14:41:46.810Z,28.46
2023-05-21T14:44:14.003Z,28.47
2023-05-21T14:46:41.571Z,28.42
2023-05-21T14:49:08.919Z,28.40
2023-05-21T14:51:36.039Z,28.21
2023-05-21T14:54:03.283Z,27.77
2023-05-21T14:56:30.775Z,27.34
2023-05-21T14:58:57.921Z,27.40
2023-05-21T15:01:25.494Z,27.51
2023-05-21T15:03:53.294Z,27.62
2023-05-21T15:06:20.578Z,27.60
2023-05-21T15:08:47.599Z,27.70
2023-05-21T15:11:14.960Z,27.83
2023-05-21T15:13:42.079Z,27.51
2023-05-21T15:16:09.373Z,27.46
2023-05-21T15:18:36.823Z,27.54
2023-05-21T15:21:05.167Z,27.63
2023-05-21T15:23:32.360Z,27.68
2023-05-21T15:25:59.870Z,27.59
2023-05-21T15:28:26.974Z,27.35
2023-05-21T15:30:54.085Z,27.08
2023-05-21T15:33:21.514Z,27.07
2023-05-21T15:35:48.720Z,27.26
2023-05-21T15:38:16.068Z,27.35
2023-05-21T15:40:44.146Z,27.43
2023-05-21T15:43:11.328Z,27.42
2023-05-21T15:45:39.157Z,27.36
2023-05-21T15:48:07.206Z,27.30
2023-05-21T15:50:35.804Z,27.26
2023-05-21T15:53:04.672Z,27.12
2023-05-21T15:55:33.401Z,27.05
2023-05-21T15:58:02.468Z,26.98
2023-05-21T16:00:29.831Z,26.97
2023-05-21T16:02:57.403Z,26.99
2023-05-21T16:05:24.544Z,26.99
2023-05-21T16:07:52.174Z,26.96
2023-05-21T16:10:19.547Z,26.93
2023-05-21T16:12:46.817Z,26.69
2023-05-21T16:15:13.828Z,26.53
2023-05-21T16:17:41.273Z,26.53
2023-05-21T16:20:08.647Z,26.47
2023-05-21T16:22:35.731Z,26.32
2023-05-21T16:25:03.315Z,26.29
2023-05-21T16:27:30.513Z,26.24
2023-05-21T16:29:58.315Z,26.10
2023-05-21T16:32:25.801Z,25.96
2023-05-21T16:34:52.995Z,26.00
2023-05-21T16:37:20.083Z,25.95
2023-05-21T16:39:47.469Z,25.88
2023-05-21T16:42:14.643Z,25.86
2023-05-21T16:44:41.709Z,25.74
2023-05-21T16:47:09.132Z,25.58
2023-05-21T16:49:36.252Z,25.61
2023-05-21T16:52:03.438Z,25.50
2023-05-21T16:54:31.032Z,25.51
2023-05-21T16:56:58.131Z,25.36
2023-05-21T16:59:25.232Z,25.14
2023-05-21T17:01:52.679Z,25.14
2023-05-21T17:04:19.935Z,25.08
2023-05-21T17:06:46.980Z,25.04
2023-05-21T17:09:14.852Z,24.99
2023-05-21T17:11:43.633Z,24.91
2023-05-21T17:14:11.956Z,24.85
2023-05-21T17:16:42.907Z,24.75
2023-05-21T17:19:10.093Z,24.66
2023-05-21T17:21:37.230Z,24.53
2023-05-21T17:24:04.937Z,24.40
2023-05-21T17:26:32.162Z,24.26
2023-05-21T17:28:59.403Z,24.18
2023-05-21T17:31:26.991Z,24.05
2023-05-21T17:33:56.205Z,23.88
2023-05-21T17:36:23.539Z,23.82
2023-05-21T17:38:50.939Z,23.61
2023-05-21T17:41:19.083Z,23.49
2023-05-21T17:43:46.216Z,23.45
2023-05-21T17:46:18.181Z,23.31
2023-05-21T17:48:45.891Z,23.15
2023-05-21T17:51:13.419Z,22.96
2023-05-21T17:53:41.139Z,22.80
2023-05-21T17:56:08.311Z,22.64
2023-05-21T17:58:35.605Z,22.50
2023-05-21T18:01:03.104Z,22.36
2023-05-21T18:03:30.519Z,22.18
2023-05-21T18:05:57.648Z,22.05
2023-05-21T18:08:24.792Z,21.95
2023-05-21T18:10:52.260Z,22.01
2023-05-21T18:13:19.357Z,22.00
2023-05-21T18:15:46.518Z,21.91
2023-05-21T18:18:19.887Z,21.82
2023-05-21T18:20:47.971Z,21.62
2023-05-21T18:23:15.483Z,21.53
2023-05-21T18:25:42.538Z,21.41
2023-05-21T18:28:10.096Z,21.37
2023-05-21T18:30:37.708Z,21.20
2023-05-21T18:33:05.074Z,21.04
2023-05-21T18:35:32.232Z,21.09
2023-05-21T18:37:59.576Z,21.08
2023-05-21T18:40:30.473Z,20.96
2023-05-21T18:42:57.885Z,20.81
2023-05-21T18:45:25.480Z,20.70
2023-05-21T18:47:52.582Z,20.63
2023-05-21T18:50:20.492Z,20.59
2023-05-21T18:52:47.955Z,20.48
2023-05-21T18:55:15.035Z,20.39
2023-05-21T18:57:42.099Z,20.30
2023-05-21T19:00:09.970Z,20.22
2023-05-21T19:02:37.424Z,20.19
2023-05-21T19:05:05.103Z,20.05
2023-05-21T19:07:32.754Z,19.97
2023-05-21T19:10:00.374Z,19.98
2023-05-21T19:12:29.319Z,19.89
2023-05-21T19:14:59.680Z,19.79
2023-05-21T19:17:27.226Z,19.74
2023-05-21T19:19:56.221Z,19.70
2023-05-21T19:22:24.740Z,19.48
2023-05-21T19:24:52.392Z,19.36
2023-05-21T19:27:19.991Z,19.33
2023-05-21T19:29:47.901Z,19.32
2023-05-21T19:32:18.752Z,19.31
2023-05-21T19:34:46.617Z,19.18
2023-05-21T19:37:14.004Z,19.08
2023-05-21T19:39:43.305Z,19.10
2023-05-21T19:42:10.752Z,19.07
2023-05-21T19:44:43.076Z,18.94
2023-05-21T19:47:10.170Z,18.84
2023-05-21T19:49:37.651Z,18.77
2023-05-21T19:52:05.705Z,18.66
2023-05-21T19:54:32.757Z,18.64
2023-05-21T19:57:00.200Z,18.55
2023-05-21T19:59:27.262Z,18.41
2023-05-21T20:01:55.480Z,18.37
2023-05-21T20:04:22.917Z,18.28
2023-05-21T20:06:50.075Z,18.25
2023-05-21T20:09:18.063Z,18.20
2023-05-21T20:11:45.511Z,18.22
2023-05-21T20:14:13.487Z,18.15
2023-05-21T20:16:42.421Z,18.19
2023-05-21T20:19:10.874Z,18.07
2023-05-21T20:21:38.041Z,18.00
2023-05-21T20:24:05.578Z,17.95
2023-05-21T20:26:35.026Z,17.95
2023-05-21T20:29:02.237Z,17.94
2023-05-21T20:31:29.525Z,17.95
2023-05-21T20:33:57.029Z,17.92
2023-05-21T20:36:25.789Z,17.92
2023-05-21T20:38:53.054Z,17.94
2023-05-21T20:41:20.490Z,17.93
2023-05-21T20:43:47.632Z,17.89
2023-05-21T20:46:17.285Z,17.85
2023-05-21T20:48:44.827Z,17.83
2023-05-21T20:51:12.283Z,17.76
2023-05-21T20:53:39.308Z,17.81
2023-05-21T20:56:08.153Z,17.77
2023-05-21T20:58:35.432Z,17.65
2023-05-21T21:01:02.547Z,17.52
2023-05-21T21:03:33.775Z,17.42
2023-05-21T21:06:01.209Z,17.40
2023-05-21T21:08:28.275Z,17.38
2023-05-21T21:10:55.873Z,17.46
2023-05-21T21:13:22.912Z,17.42
2023-05-21T21:15:50.163Z,17.49
2023-05-21T21:18:17.641Z,17.48
2023-05-21T21:20:49.459Z,17.42
2023-05-21T21:23:16.662Z,17.33
2023-05-21T21:25:44.093Z,17.27
2023-05-21T21:28:11.223Z,17.25
2023-05-21T21:30:40.997Z,17.12
2023-05-21T21:33:08.752Z,17.10
2023-05-21T21:35:36.041Z,17.00
2023-05-21T21:38:04.973Z,16.98
2023-05-21T21:40:32.454Z,17.08
2023-05-21T21:42:59.544Z,17.04
2023-05-21T21:45:26.664Z,16.99
2023-05-21T21:47:54.072Z,17.09
2023-05-21T21:50:21.118Z,17.10
2023-05-21T21:52:48.884Z,17.12
2023-05-21T21:55:16.408Z,17.15
2023-05-21T21:57:43.443Z,17.04
2023-05-21T22:00:11.611Z,17.10
2023-05-21T22:02:40.274Z,17.15
2023-05-21T22:05:08.767Z,17.20
2023-05-21T22:07:38.602Z,17.25
2023-05-21T22:10:06.583Z,17.23
2023-05-21T22:12:34.022Z,17.14
2023-05-21T22:15:05.713Z,17.15
2023-05-21T22:17:34.143Z,17.42
2023-05-21T22:20:01.478Z,17.65
2023-05-21T22:22:28.609Z,18.08
2023-05-21T22:24:56.501Z,18.27
2023-05-21T22:27:23.581Z,18.38
2023-05-21T22:29:50.563Z,18.40
2023-05-21T22:32:17.946Z,18.39
2023-05-21T22:34:44.946Z,18.44
2023-05-21T22:37:12.328Z,18.58
2023-05-21T22:39:39.832Z,18.61
2023-05-21T22:42:07.071Z,18.70
2023-05-21T22:44:34.333Z,18.69
2023-05-21T22:47:03.712Z,18.85
2023-05-21T22:49:32.753Z,19.00
2023-05-21T22:52:05.270Z,19.11
2023-05-21T22:54:32.814Z,19.13
2023-05-21T22:57:01.183Z,19.10
2023-05-21T22:59:29.439Z,19.05
2023-05-21T23:01:56.901Z,19.05
2023-05-21T23:04:42.617Z,19.00
2023-05-21T23:07:11.818Z,18.93
2023-05-21T23:09:38.884Z,18.84
2023-05-21T23:12:06.438Z,18.75
2023-05-21T23:14:33.837Z,18.76
2023-05-21T23:17:01.917Z,18.62
2023-05-21T23:19:29.745Z,18.49
2023-05-21T23:21:57.384Z,18.51
2023-05-21T23:24:24.544Z,18.39
2023-05-21T23:26:52.388Z,18.29
2023-05-21T23:29:19.748Z,18.25
2023-05-21T23:31:47.079Z,18.26
2023-05-21T23:34:14.630Z,18.16
2023-05-21T23:36:41.984Z,18.08
2023-05-21T23:39:09.411Z,18.07
2023-05-21T23:41:36.484Z,18.01
2023-05-21T23:44:03.944Z,17.99
2023-05-21T23:46:31.009Z,17.85
2023-05-21T23:48:58.028Z,17.84
2023-05-21T23:51:25.487Z,17.66
2023-05-21T23:53:52.505Z,17.66
2023-05-21T23:56:19.550Z,17.57
2023-05-21T23:58:46.852Z,17.68
